DAUH/HME METAR and TAF weather

Enter ICAO airport designator
Station Type Date Time Source
DAUH METAR 2019/05/27 09:00 UTC NOAA

DAUH 270900Z 34012KT CAVOK 24/08 Q1013


Station Type Date Time Source
DAUH Decoded METAR 2019/05/27 09:00 UTC NOAA

Hassi-Messaoud, Algeria (DAUH) 31-40N 006-09E 142M
May 27, 2019 - 05:00 AM EDT / 2019.05.27 0900 UTC
Wind: from the NNW (340 degrees) at 14 MPH (12 KT):0
Visibility: greater than 7 mile(s):0
Temperature: 75 F (24 C)
Dew Point: 46 F (8 C)
Relative Humidity: 35%
Pressure (altimeter): 29.91 in. Hg (1013 hPa)
ob: DAUH 270900Z 34012KT CAVOK 24/08 Q1013
cycle: 9

Station Type Date Time Source
DAUH TAF 2019/05/27 06:33 UTC NOAA

TAF DAUH 270500Z 2706/2806 35008KT CAVOK

Example: see airport list